Date,TemperatureHighF,TemperatureAvgF,TemperatureLowF,DewpointHighF,DewpointAvgF,DewpointLowF,HumidityHigh,HumidityAvg,HumidityLow,PressureMaxIn,PressureMinIn,WindSpeedMaxMPH,WindSpeedAvgMPH,GustSpeedMaxMPH,PrecipitationSumIn
2013-1-1,33.3,25.3,16.3,31.1,15.7,5.5,92,67,52,29.63,29.48,12,5,12,0.00
2013-1-2,34.7,21.3,12.6,14.0,7.5,2.3,68,55,40,29.69,29.60,6,2,6,0.00
2013-1-3,40.5,28.3,18.9,21.9,15.3,6.6,69,58,45,29.78,29.60,13,4,13,0.00
2013-1-4,41.4,29.5,23.2,20.8,17.6,15.3,77,62,41,29.81,29.69,15,3,17,0.00
2013-1-5,44.2,33.4,22.6,28.2,22.0,16.0,77,64,44,29.72,29.48,13,3,13,0.00
2013-1-6,37.9,32.5,21.7,28.6,20.6,14.4,73,62,45,29.75,29.45,22,6,22,0.00
2013-1-7,45.0,29.8,18.7,22.8,17.7,11.8,78,62,38,29.81,29.57,11,2,11,0.00
2013-1-8,51.4,37.2,24.4,29.7,23.0,17.4,77,58,36,29.66,29.54,11,2,11,0.00
2013-1-9,59.4,46.6,39.2,44.6,34.0,26.1,91,64,36,29.87,29.57,10,0,10,0.16
2013-1-10,58.1,46.3,40.6,57.6,39.6,25.3,98,79,48,29.87,29.25,13,5,13,0.12
2013-1-11,63.0,56.3,51.8,58.1,48.7,43.2,98,77,51,29.34,29.22,21,6,22,0.20
2013-1-12,65.5,52.2,34.9,54.3,47.1,32.7,98,84,59,29.39,29.19,23,6,23,1.78
2013-1-13,34.7,28.5,20.8,33.6,22.9,8.8,96,80,59,29.72,29.28,18,4,18,1.90
2013-1-14,28.6,22.6,18.5,14.2,10.3,6.1,73,59,47,29.87,29.72,11,4,13,0.00
2013-1-15,30.0,25.7,19.9,19.0,14.7,12.0,75,63,51,29.78,29.48,13,5,14,0.00
2013-1-16,42.1,32.1,23.7,21.6,18.5,15.3,81,58,37,29.54,29.42,11,4,11,0.00
2013-1-17,42.1,34.6,25.3,27.5,20.6,14.9,66,56,44,29.87,29.51,18,5,19,0.00
2013-1-18,47.7,34.5,21.9,24.3,19.9,14.9,78,57,37,29.90,29.54,23,5,23,0.00
2013-1-19,57.9,46.3,37.9,32.0,27.6,23.2,59,48,35,29.60,29.34,23,8,23,0.00
2013-1-20,44.2,32.6,25.9,27.7,11.7,5.7,57,42,31,29.72,29.48,18,6,18,0.00
2013-1-21,27.1,21.3,14.5,9.0,0.7,-7.6,58,41,32,29.75,29.63,23,8,24,0.00
2013-1-22,23.5,17.6,11.1,4.6,-3.0,-10.7,50,40,35,29.84,29.72,14,4,14,0.00
2013-1-23,43.5,27.4,14.2,17.8,10.5,3.0,63,49,34,29.75,29.51,18,4,20,0.00
2013-1-24,28.2,23.0,15.1,9.5,2.4,-4.4,48,40,35,29.96,29.66,20,6,20,0.00
2013-1-25,42.8,31.7,26.2,18.0,9.9,1.6,53,40,33,29.66,29.48,15,4,15,0.00
2013-1-26,40.1,29.9,22.5,16.2,10.5,5.0,57,44,33,29.75,29.60,12,4,13,0.00
2013-1-27,47.1,34.6,25.7,44.2,27.6,10.8,98,77,51,29.72,29.42,17,4,19,0.13
2013-1-28,59.7,55.5,47.1,58.3,53.4,44.4,97,92,86,29.45,29.36,19,6,19,0.25
2013-1-29,66.0,61.5,53.1,59.2,55.2,50.0,98,80,62,29.36,28.86,35,9,35,1.16
2013-1-30,54.7,42.3,28.6,53.1,36.1,12.2,98,80,48,29.31,28.86,33,10,33,1.53
2013-1-31,34.9,26.2,11.8,26.1,12.4,-4.0,93,56,44,29.72,29.31,28,11,28,0.00
2013-2-1,28.2,18.5,9.0,9.5,1.4,-6.9,52,46,39,29.87,29.63,20,6,21,0.00
2013-2-2,42.6,31.5,25.5,20.3,15.3,8.6,63,51,39,29.63,29.42,19,6,20,0.00
2013-2-3,36.0,29.5,24.1,27.5,18.1,11.8,91,63,43,29.57,29.39,20,5,20,0.00
2013-2-4,51.6,36.6,24.4,34.7,23.4,12.4,73,59,49,29.45,29.19,17,5,17,0.00
2013-2-5,53.8,39.4,30.4,32.2,26.8,22.6,76,61,42,29.54,29.31,17,4,18,0.00
2013-2-6,52.9,38.0,25.3,31.1,25.2,19.8,82,62,37,29.63,29.51,7,2,9,0.00
2013-2-7,66.0,46.6,34.2,46.9,35.2,26.8,93,67,38,29.51,29.28,21,4,21,0.00
2013-2-8,40.5,35.5,32.4,35.8,25.0,19.8,83,66,56,29.78,29.39,20,7,20,0.00
2013-2-9,47.7,37.9,31.5,28.2,23.7,19.8,67,57,41,29.78,29.48,11,4,11,0.00
2013-2-10,53.8,46.2,38.5,51.1,41.8,28.0,95,85,53,29.48,29.07,18,5,18,0.58
2013-2-11,53.1,43.1,33.3,32.7,23.3,20.1,60,46,31,29.57,29.19,31,9,32,0.00
2013-2-12,53.4,38.7,27.0,28.2,23.5,19.0,76,56,36,29.60,29.34,9,2,9,0.00
2013-2-13,55.8,42.5,36.5,30.9,26.6,23.4,70,55,32,29.36,29.25,17,4,17,0.00
2013-2-14,57.9,44.1,35.1,31.3,28.1,24.4,77,55,34,29.45,29.25,20,6,22,0.00
2013-2-15,41.2,35.0,26.8,28.8,17.1,9.1,71,49,31,29.66,29.45,18,5,18,0.00
2013-2-16,37.8,28.2,22.1,12.6,9.1,5.9,56,45,32,29.63,29.54,16,5,17,0.00
2013-2-17,47.1,32.2,19.4,19.2,14.0,8.8,70,48,30,29.63,29.39,11,3,11,0.00
2013-2-18,56.7,44.3,34.7,46.9,33.9,16.2,94,68,46,29.39,29.04,36,9,36,0.24
2013-2-19,37.4,30.4,24.6,28.0,12.8,5.5,72,48,37,29.66,29.28,28,10,28,0.24
2013-2-20,29.3,23.7,18.1,9.1,6.1,2.3,58,46,41,29.78,29.63,14,5,15,0.00
2013-2-21,32.7,26.8,20.5,31.1,18.7,8.4,94,72,52,29.72,29.25,23,5,23,0.00
2013-2-22,40.3,33.6,25.0,33.4,27.3,16.7,97,78,61,29.48,29.22,17,4,17,0.34
2013-2-23,39.4,28.5,21.4,19.2,16.4,14.2,78,61,41,29.48,29.39,13,3,13,0.00
2013-2-24,49.3,33.3,20.3,24.6,19.2,14.0,80,58,36,29.54,29.42,9,2,9,0.00
2013-2-25,48.9,39.6,30.7,27.7,24.1,21.6,72,55,37,29.48,29.04,23,7,24,0.00
2013-2-26,52.7,40.8,35.1,49.1,37.5,24.3,98,89,52,29.04,28.80,23,7,23,0.66
2013-2-27,38.5,34.7,32.7,32.4,30.0,27.0,90,83,70,29.31,29.04,20,9,22,0.08
2013-2-28,36.7,34.2,32.7,30.4,28.3,27.0,90,79,69,29.48,29.25,17,7,18,0.05
2013-3-1,37.6,33.4,30.2,31.5,28.1,23.7,94,81,62,29.54,29.42,13,5,15,0.12
2013-3-2,35.6,29.8,24.8,24.6,17.7,11.5,79,61,41,29.60,29.51,17,6,20,0.00
2013-3-3,41.4,30.8,20.1,18.3,13.9,10.6,75,50,33,29.60,29.48,11,2,12,0.00
2013-3-4,48.6,40.5,32.7,27.1,22.8,17.1,63,49,39,29.48,29.22,15,5,17,0.00
2013-3-5,42.3,36.3,31.6,32.0,25.8,17.6,95,66,51,29.45,29.19,30,-12,30,0.00
2013-3-6,36.9,32.7,28.9,22.3,20.0,18.0,67,59,51,29.75,29.42,24,8,26,0.00
2013-3-7,47.7,34.0,25.0,25.2,20.8,16.5,77,59,39,29.84,29.72,9,2,9,0.04
2013-3-8,54.7,40.2,27.1,27.7,24.3,20.3,79,55,33,29.84,29.60,12,3,13,0.00
2013-3-9,62.6,50.2,39.9,33.8,28.4,24.1,55,43,32,29.63,29.28,17,4,17,0.00
2013-3-10,65.8,56.3,50.0,48.9,41.0,29.5,93,60,36,29.28,29.07,24,5,24,0.33
2013-3-11,50.5,39.2,35.4,48.4,32.8,22.6,95,78,59,29.39,29.10,22,8,22,0.04
2013-3-12,54.1,39.0,30.0,26.2,21.4,16.9,73,51,30,29.57,29.36,25,7,25,0.00
2013-3-13,41.5,33.4,27.1,19.9,13.9,10.9,61,45,34,29.81,29.57,23,7,26,0.00
2013-3-14,49.8,34.9,23.0,23.9,18.5,12.4,71,52,35,29.78,29.51,15,3,18,0.00
2013-3-15,69.3,50.8,29.1,45.1,32.9,21.7,78,53,31,29.54,29.07,15,3,17,0.00
2013-3-16,61.7,48.6,37.8,45.1,36.1,30.0,80,63,51,29.45,29.07,23,7,23,0.00
2013-3-17,38.1,35.8,33.6,36.0,31.0,25.2,98,83,70,29.54,29.19,17,7,17,0.87
2013-3-18,46.0,40.5,36.3,42.3,35.3,22.6,98,83,51,29.39,29.07,24,6,24,1.07
2013-3-19,52.2,38.2,29.8,22.6,17.0,13.6,59,43,27,29.60,29.39,20,6,21,0.00
2013-3-20,35.6,30.8,25.2,24.3,12.1,6.3,69,46,34,29.66,29.48,23,7,26,0.00
2013-3-21,42.1,29.4,21.0,16.5,10.1,6.1,54,44,33,29.51,29.39,11,4,11,0.00
2013-3-22,43.2,34.7,26.4,18.3,15.6,11.7,59,46,34,29.45,29.39,9,3,9,0.00
2013-3-23,56.8,44.5,35.2,27.1,22.5,18.0,54,42,30,29.48,29.22,19,5,19,0.00
2013-3-24,44.4,34.5,31.5,34.3,31.9,25.3,98,91,47,29.28,28.89,26,8,26,0.25
2013-3-25,39.2,32.9,30.2,32.0,27.0,21.9,98,80,56,29.54,29.13,20,8,20,0.09
2013-3-26,46.2,34.9,27.9,25.0,21.5,17.4,79,59,40,29.72,29.54,17,5,17,0.24
2013-3-27,52.2,36.7,24.3,26.6,21.2,18.5,81,56,33,29.81,29.69,11,3,12,0.00
2013-3-28,61.3,44.3,30.0,32.7,25.0,19.4,72,48,30,29.78,29.66,9,2,9,0.00
2013-3-29,61.2,49.8,41.7,40.5,33.4,24.8,75,54,43,29.69,29.60,10,3,10,0.00
2013-3-30,62.8,47.1,35.6,44.2,38.0,31.3,95,73,37,29.63,29.34,14,2,14,0.17
2013-3-31,68.7,55.2,47.1,49.8,41.9,31.1,98,66,31,29.36,29.25,15,4,18,0.17
2013-4-1,53.8,44.3,36.5,32.7,20.2,15.1,52,39,27,29.60,29.34,19,7,19,0.00
2013-4-2,53.8,39.8,29.3,20.1,15.3,12.7,52,38,26,29.75,29.60,13,3,13,0.00
2013-4-3,56.3,43.7,32.7,21.0,17.3,13.8,52,35,25,29.75,29.63,16,4,16,0.00
2013-4-4,64.4,48.7,35.4,25.9,19.4,14.9,43,32,21,29.63,29.42,10,3,11,0.00
2013-4-5,68.4,52.0,37.0,33.6,26.8,20.8,62,39,23,29.57,29.42,13,3,14,0.00
2013-4-6,75.6,61.2,48.2,37.4,30.7,25.7,42,33,22,29.48,29.19,26,7,26,0.00
2013-4-7,81.9,65.9,55.6,54.5,44.3,36.3,78,48,24,29.36,29.25,19,4,19,0.08
2013-4-8,78.1,67.1,59.4,54.1,51.0,48.9,76,57,41,29.36,29.22,20,6,20,0.04
2013-4-9,81.9,71.1,62.8,57.7,53.7,51.1,69,55,40,29.39,29.31,25,6,25,0.00
2013-4-10,85.6,72.7,59.5,63.5,60.0,56.8,93,66,42,29.36,29.13,22,6,23,1.04
2013-4-11,63.9,52.3,40.8,63.3,46.8,23.9,98,83,49,29.28,29.07,24,7,24,1.25
2013-4-12,50.7,43.8,37.2,30.7,27.1,23.7,70,53,38,29.45,29.16,20,7,25,0.00
2013-4-13,65.3,49.8,36.0,32.7,29.4,25.5,72,47,28,29.48,29.36,20,5,20,0.00
2013-4-14,79.9,62.8,46.6,43.7,37.7,31.5,64,42,22,29.39,29.13,20,5,20,0.00
2013-4-15,76.5,65.6,56.7,55.6,50.4,41.4,72,59,45,29.36,29.25,13,4,15,0.00
2013-4-16,64.4,53.0,50.2,55.4,48.8,44.2,97,86,67,29.57,29.31,25,6,27,0.04
2013-4-17,83.7,66.2,50.7,67.6,58.0,49.6,98,78,41,29.57,29.28,21,4,21,0.04
2013-4-18,73.4,63.4,42.8,63.0,57.0,34.0,98,81,58,29.28,29.07,32,-238,32,1.74
2013-4-19,50.9,43.3,37.9,34.3,25.6,22.1,73,50,36,29.48,29.19,27,9,31,0.67
2013-4-20,59.2,45.6,32.7,32.0,24.8,19.9,77,46,26,29.78,29.48,14,4,14,0.00
2013-4-21,65.5,51.3,38.3,34.0,27.7,24.8,59,41,27,29.84,29.69,13,4,13,0.00
2013-4-22,76.1,58.7,40.6,42.3,34.9,26.6,64,43,24,29.72,29.45,13,-146,13,0.00
2013-4-23,62.1,55.4,43.0,59.0,47.6,39.7,96,76,50,29.48,29.28,17,-36,17,0.46
2013-4-24,55.9,44.1,38.5,41.5,33.6,25.5,96,70,36,29.66,29.36,21,-197,21,1.17
2013-4-25,63.7,49.4,36.0,35.8,30.0,25.5,79,51,26,29.75,29.63,16,-90,18,0.00
2013-4-26,65.7,53.4,43.5,41.9,36.1,29.3,66,52,35,29.84,29.69,17,-112,17,0.00
2013-4-27,58.8,54.6,51.1,55.0,47.8,41.5,98,78,67,29.72,29.34,11,-232,11,0.12
2013-4-28,60.4,55.5,49.3,55.4,52.5,45.9,98,90,72,29.39,29.28,0,-996,0,0.16
2013-4-29,77.4,61.4,43.9,55.6,49.2,41.5,95,68,40,29.39,29.28,0,-999,0,0.00
2013-4-30,86.9,71.4,58.8,56.3,51.8,46.9,78,53,28,29.45,29.31,15,-391,15,0.00
2013-5-1,84.4,70.8,56.5,55.2,51.4,46.4,80,53,30,29.57,29.42,11,2,11,0.00
2013-5-2,82.2,67.0,54.3,63.9,55.5,48.7,84,69,37,29.57,29.48,13,3,14,0.21
2013-5-3,69.8,55.3,47.5,62.8,51.7,45.3,94,88,62,29.51,29.19,15,3,15,0.62
2013-5-4,51.6,47.3,44.2,47.7,44.8,42.6,95,91,82,29.45,29.31,9,2,9,0.62
2013-5-5,60.4,54.3,47.3,57.0,51.6,44.8,98,91,74,29.42,29.31,17,5,17,0.29
2013-5-6,66.4,59.6,53.6,54.5,52.5,49.6,98,78,62,29.42,29.31,15,6,15,0.04
2013-5-7,76.6,65.2,55.9,56.7,51.0,41.5,90,64,32,29.48,29.39,11,3,11,0.00
2013-5-8,83.3,68.2,54.9,56.8,47.8,37.0,90,54,21,29.51,29.42,15,2,15,0.00
2013-5-9,81.3,69.2,63.5,62.4,56.3,50.5,86,65,43,29.48,29.31,18,3,19,0.25
2013-5-10,75.6,64.3,56.3,61.5,55.2,46.9,91,73,48,29.45,29.28,18,5,18,0.00
2013-5-11,71.6,59.1,50.2,48.9,40.4,26.1,83,54,24,29.57,29.42,23,6,23,0.00
2013-5-12,63.3,52.5,42.8,34.0,26.6,21.9,63,38,24,29.66,29.54,20,4,20,0.00
2013-5-13,72.0,56.5,40.1,38.8,31.8,25.9,77,44,22,29.63,29.51,11,2,13,0.00
2013-5-14,89.1,71.0,52.5,54.7,46.8,34.0,57,43,28,29.51,29.25,19,5,19,0.00
2013-5-15,88.9,76.9,67.1,58.1,51.9,47.7,60,43,29,29.39,29.31,18,6,18,0.00
2013-5-16,80.6,72.5,66.7,63.5,57.7,49.6,77,61,38,29.45,29.31,19,4,19,0.00
2013-5-17,80.6,70.8,63.9,61.7,58.6,55.9,82,66,46,29.45,29.39,9,2,10,0.00
2013-5-18,81.7,71.8,63.9,63.3,59.7,55.2,88,67,45,29.48,29.39,10,2,10,0.00
2013-5-19,90.1,76.8,64.4,70.9,64.3,59.5,88,67,42,29.42,29.25,15,3,15,0.00
2013-5-20,84.6,77.2,66.7,66.2,61.9,52.2,78,60,46,29.39,29.22,24,5,24,0.00
2013-5-21,81.3,70.8,63.9,65.7,61.9,56.5,95,75,44,29.39,29.22,17,5,24,0.79
2013-5-22,79.2,69.9,64.2,62.2,56.1,48.2,85,63,36,29.34,29.19,17,-30,17,0.00
2013-5-23,67.8,61.4,52.0,60.4,51.2,41.7,88,70,47,29.69,29.31,20,-19,20,0.08
2013-5-24,68.9,56.3,43.7,44.1,37.2,31.1,74,51,30,29.81,29.66,13,4,13,0.00
2013-5-25,70.2,60.7,48.2,47.7,43.4,38.7,81,55,33,29.81,29.60,15,2,15,0.00
2013-5-26,76.8,67.2,55.8,55.6,49.3,40.1,66,53,41,29.69,29.48,11,3,11,0.00
2013-5-27,85.6,71.7,63.7,62.1,57.1,51.1,89,63,33,29.51,29.28,24,5,24,0.33
2013-5-28,85.5,74.4,64.0,65.8,60.9,56.8,91,65,43,29.45,29.34,23,6,24,0.05
2013-5-29,86.4,77.2,66.0,63.3,58.9,56.3,76,54,40,29.48,29.36,22,4,22,0.00
2013-5-30,85.5,75.6,66.7,66.4,62.8,55.2,90,65,44,29.48,29.36,19,4,19,0.33
2013-5-31,80.8,72.6,63.5,69.4,65.9,59.4,98,81,58,29.45,29.31,23,5,23,1.41
2013-6-1,73.8,67.3,63.7,69.4,64.6,61.5,98,91,71,29.45,29.28,15,-45,15,2.82
2013-6-2,70.9,64.6,60.4,61.5,56.2,50.9,93,75,52,29.54,29.39,10,-210,10,0.00
2013-6-3,69.6,62.3,55.9,53.8,47.6,40.8,82,61,38,29.57,29.48,11,-28,11,0.00
2013-6-4,75.6,65.5,52.9,55.4,51.1,48.0,85,62,40,29.57,29.48,9,2,9,0.00
2013-6-5,81.9,71.9,60.6,61.9,55.5,49.1,82,59,34,29.54,29.34,7,2,7,0.00
2013-6-6,82.6,73.1,67.5,61.0,55.6,47.8,79,56,31,29.36,29.28,13,-28,15,0.00
2013-6-7,78.1,69.2,62.4,57.4,53.2,48.7,75,58,37,29.39,29.31,13,-3,13,0.00
2013-6-8,82.0,69.9,59.0,59.7,53.3,46.6,86,59,31,29.48,29.36,9,2,9,0.00
2013-6-9,82.4,70.4,63.1,64.9,57.4,50.9,91,66,35,29.48,29.31,16,2,17,0.25
2013-6-10,78.6,69.5,62.2,66.0,60.1,53.4,97,75,45,29.42,29.28,14,3,14,0.17
2013-6-11,90.0,76.4,60.8,70.3,63.7,57.4,91,67,45,29.48,29.36,13,3,13,0.00
2013-6-12,93.2,84.1,75.2,72.0,67.9,64.0,80,60,40,29.48,29.25,19,6,22,0.00
2013-6-13,84.7,77.2,67.5,67.5,55.7,46.6,72,50,28,29.45,29.25,25,6,25,0.00
2013-6-14,82.8,72.5,61.7,55.9,50.3,45.1,72,48,29,29.57,29.42,11,3,11,0.00
2013-6-15,88.3,75.8,63.7,64.2,57.4,53.2,80,55,33,29.57,29.42,23,3,26,0.00
2013-6-16,80.8,72.8,68.5,73.2,66.5,61.9,93,81,66,29.51,29.42,11,2,11,0.29
2013-6-17,87.8,74.0,65.8,72.3,66.3,52.9,97,80,44,29.48,29.36,20,2,20,0.70
2013-6-18,88.9,74.8,64.2,67.1,60.3,49.6,97,65,31,29.48,29.36,15,3,15,0.00
2013-6-19,85.3,74.8,65.3,64.2,59.9,54.5,89,62,37,29.57,29.42,10,2,10,0.00
2013-6-20,89.2,78.4,67.5,66.9,60.7,54.0,86,58,31,29.66,29.54,9,-244,9,0.00
2013-6-21,92.5,81.0,70.3,67.5,62.0,55.6,79,55,32,29.63,29.48,0,-999,0,0.00
2013-6-22,90.3,76.6,67.8,68.5,64.8,52.5,91,69,38,29.63,29.48,0,-999,0,0.13
2013-6-23,76.6,69.8,66.9,72.9,66.8,60.1,97,90,64,29.60,29.48,18,-468,18,1.42
2013-6-24,89.6,76.2,67.1,73.9,69.3,66.0,98,81,48,29.60,29.48,11,-186,11,0.37
2013-6-25,92.3,82.1,73.2,71.8,68.0,63.0,88,65,41,29.51,29.36,13,-501,13,0.00
2013-6-26,88.2,77.7,70.5,74.7,69.1,64.4,93,75,60,29.45,29.22,0,-999,0,0.62
2013-6-27,94.8,81.8,72.0,74.7,65.0,54.0,96,62,26,29.39,29.28,0,-999,0,0.00
2013-6-28,90.0,80.4,72.5,68.5,57.6,42.1,79,50,23,29.34,29.16,0,-999,0,0.00
2013-6-29,82.8,72.2,66.6,62.4,57.4,49.6,86,61,38,29.19,29.13,0,-999,0,0.04
2013-6-30,76.3,68.2,64.8,66.0,61.3,57.4,93,79,54,29.39,29.19,10,-908,10,0.67
2013-7-1,69.3,65.7,63.1,64.0,60.7,55.9,98,84,70,29.48,29.36,0,-999,0,1.04
2013-7-2,66.4,64.6,62.2,65.7,63.5,61.7,98,96,91,29.57,29.42,0,-999,0,2.86
2013-7-3,78.8,69.2,63.3,64.8,59.0,49.1,98,74,37,29.63,29.54,10,-773,10,0.05
2013-7-4,83.5,72.3,59.4,62.4,57.4,50.2,90,63,35,29.60,29.51,0,-999,0,0.00
2013-7-5,81.9,72.7,64.6,64.8,62.2,58.8,91,71,49,29.60,29.48,0,-999,0,0.00
2013-7-6,86.7,74.8,66.9,68.0,63.1,49.5,89,69,38,29.57,29.48,23,-708,23,0.04
2013-7-7,88.0,76.0,64.6,67.8,63.0,58.3,87,66,42,29.57,29.48,10,-234,10,0.04
2013-7-8,91.2,81.2,72.0,69.6,65.3,61.0,79,60,39,29.63,29.51,2,-981,2,0.00
2013-7-9,93.4,84.2,76.1,71.1,67.5,62.4,75,59,37,29.57,29.45,9,-738,9,0.00
2013-7-10,85.1,79.1,72.5,71.1,68.1,63.3,86,70,52,29.51,29.39,20,4,20,0.04
2013-7-11,82.4,74.9,68.0,65.1,54.2,46.4,82,52,31,29.57,29.48,15,5,17,0.00
2013-7-12,83.1,73.6,63.3,55.9,51.3,46.4,69,48,29,29.60,29.51,11,4,11,0.00
2013-7-13,84.7,75.3,64.4,58.6,54.4,50.2,72,50,31,29.60,29.51,13,4,15,0.00
2013-7-14,89.1,77.5,65.7,66.7,62.0,55.0,80,60,40,29.72,29.54,13,-29,13,0.00
2013-7-15,87.8,80.4,72.5,72.1,67.7,65.1,84,66,49,29.75,29.66,9,-177,9,0.00
2013-7-16,91.0,81.9,72.1,73.2,66.1,59.9,88,62,36,29.84,29.72,7,-197,7,0.00
2013-7-17,92.8,83.4,73.6,74.7,66.3,60.3,86,59,37,29.84,29.69,7,-123,7,0.00
2013-7-18,94.3,84.2,75.2,74.8,67.7,61.2,85,61,34,29.72,29.54,9,2,9,0.00
2013-7-19,92.3,83.1,74.7,70.7,66.0,61.7,79,58,38,29.57,29.39,13,4,13,0.00
2013-7-20,93.7,79.1,71.1,77.2,66.8,58.3,87,68,40,29.48,29.34,23,4,26,0.33
2013-7-21,85.5,76.0,69.3,69.8,67.4,64.4,92,76,52,29.45,29.36,10,-137,10,0.04
2013-7-22,88.5,78.9,71.2,70.7,66.1,59.7,94,68,39,29.39,29.31,12,3,12,0.09
2013-7-23,92.7,81.3,73.6,74.3,65.8,56.8,89,62,39,29.45,29.31,13,-14,14,0.00
2013-7-24,77.9,71.2,64.4,58.6,49.1,41.5,70,47,28,29.51,29.42,13,-38,13,0.00
2013-7-25,79.9,70.2,60.1,54.5,48.7,43.3,70,49,29,29.60,29.48,13,-345,13,0.00
2013-7-26,79.3,69.9,61.0,65.3,57.6,51.4,88,67,40,29.57,29.42,0,-999,0,0.04
2013-7-27,77.4,69.7,59.4,66.9,50.9,39.4,92,55,30,29.48,29.42,18,-705,18,0.04
2013-7-28,78.8,66.5,54.0,52.2,46.3,39.9,77,51,30,29.54,29.45,13,-544,13,0.00
2013-7-29,81.7,69.9,57.9,58.6,53.3,47.3,81,58,34,29.66,29.51,9,2,9,0.00
2013-7-30,69.8,68.5,65.7,69.1,64.1,58.1,98,87,67,29.63,29.51,7,1,7,0.95
2013-7-31,85.5,74.5,69.1,72.1,66.5,61.3,98,78,49,29.54,29.48,14,3,14,0.00
2013-8-1,85.5,74.5,66.2,64.8,58.3,45.7,91,62,26,29.60,29.48,12,3,12,0.00
2013-8-2,84.7,73.7,66.2,67.5,62.2,58.5,87,69,44,29.51,29.45,15,2,15,0.05
2013-8-3,86.2,75.8,69.4,68.5,63.0,55.6,91,67,42,29.60,29.42,15,3,15,0.05
2013-8-4,80.1,71.9,63.5,57.2,52.9,46.6,72,53,32,29.66,29.57,9,2,9,0.00
2013-8-5,79.2,69.8,62.2,61.3,57.8,52.5,83,67,43,29.60,29.42,12,2,13,0.00
2013-8-6,88.0,75.9,68.9,70.7,64.4,59.2,89,70,42,29.48,29.36,11,3,13,0.00
2013-8-7,86.9,76.4,70.0,70.5,66.6,63.9,92,73,49,29.48,29.36,15,3,16,0.00
2013-8-8,85.3,75.5,68.5,70.9,68.1,64.8,92,79,53,29.48,29.36,10,2,10,0.08
2013-8-9,82.2,75.2,69.1,70.2,64.8,58.8,94,72,46,29.60,29.42,9,3,9,0.04
2013-8-10,85.5,76.6,70.2,63.1,59.1,52.5,75,56,34,29.66,29.54,13,3,13,0.00
2013-8-11,83.1,73.6,64.2,58.8,54.3,47.8,77,53,31,29.66,29.54,10,2,10,0.00
2013-8-12,84.2,73.1,65.8,72.9,65.4,57.6,94,78,55,29.60,29.42,13,2,13,0.67
2013-8-13,78.6,71.2,63.1,69.1,59.5,46.6,98,69,44,29.63,29.42,15,-9,15,0.67
2013-8-14,72.9,64.1,55.2,48.2,44.5,40.3,70,51,32,29.69,29.60,16,-46,16,0.00
2013-8-15,73.8,64.3,55.9,50.4,46.8,42.3,73,55,34,29.63,29.54,12,3,12,0.00
2013-8-16,77.2,67.6,58.1,53.6,48.9,45.0,74,53,34,29.63,29.54,13,4,13,0.00
2013-8-17,77.7,69.8,61.9,56.1,52.7,49.6,69,55,42,29.66,29.60,9,3,9,0.00
2013-8-18,82.8,71.2,63.5,66.4,59.2,53.6,88,68,41,29.66,29.60,10,2,12,0.16
2013-8-19,84.2,73.2,62.8,64.8,59.1,50.2,91,65,32,29.66,29.54,6,-23,6,0.00
2013-8-20,86.0,75.0,65.7,65.8,61.5,57.2,86,65,39,29.63,29.54,8,-2,8,0.00
2013-8-21,87.3,76.5,66.7,66.9,62.3,57.0,88,64,37,29.63,29.54,11,2,11,0.00
2013-8-22,90.1,79.4,69.8,67.6,63.9,59.0,86,62,38,29.63,29.48,12,3,12,0.00
2013-8-23,86.7,77.4,69.6,68.9,62.9,56.3,91,64,37,29.63,29.54,13,4,13,0.17
2013-8-24,87.1,76.0,67.5,65.8,60.1,51.3,84,61,30,29.72,29.60,8,2,9,0.00
2013-8-25,87.6,75.6,63.9,62.4,57.2,49.3,83,57,28,29.78,29.66,8,1,10,0.00
2013-8-26,90.9,79.5,70.5,71.1,64.9,55.6,89,64,32,29.81,29.57,10,3,11,0.00
2013-8-27,92.3,80.6,72.9,70.2,65.9,57.7,81,63,35,29.60,29.48,11,3,13,0.00
2013-8-28,92.1,81.3,72.0,68.7,61.9,53.8,81,55,29,29.57,29.48,15,4,15,0.00
2013-8-29,93.4,82.0,72.5,70.9,65.1,59.0,78,58,34,29.57,29.48,10,2,11,0.00
2013-8-30,95.0,83.2,73.6,72.5,67.3,60.6,89,62,33,29.48,29.36,12,3,12,0.00
2013-8-31,95.4,83.5,71.4,71.8,66.4,55.6,97,60,31,29.36,29.25,28,4,28,0.71
2013-9-1,90.0,76.7,70.0,73.6,68.5,59.0,98,78,47,29.36,29.28,24,3,25,0.71
2013-9-2,84.2,75.1,69.6,67.6,57.5,49.3,87,57,32,29.45,29.31,13,4,13,0.00
2013-9-3,80.1,70.6,62.8,58.8,52.9,46.9,83,56,33,29.57,29.42,12,4,12,0.00
2013-9-4,80.8,69.4,58.6,56.3,52.3,47.1,81,58,32,29.63,29.54,9,2,10,0.00
2013-9-5,83.7,71.5,60.3,60.8,55.8,48.7,83,61,30,29.69,29.60,7,1,8,0.00
2013-9-6,85.3,73.6,62.6,62.8,58.5,53.2,86,62,34,29.69,29.54,10,1,10,0.00
2013-9-7,87.8,75.6,64.8,64.8,59.5,52.0,86,61,31,29.57,29.42,13,2,13,0.00
2013-9-8,82.9,75.8,71.2,70.9,66.2,60.8,86,72,62,29.51,29.42,9,-2,9,0.08
2013-9-9,91.9,80.3,71.6,76.1,68.4,61.5,97,70,38,29.51,29.42,9,-316,10,0.00
2013-9-10,94.3,82.3,73.8,70.9,66.1,61.2,85,61,37,29.60,29.48,11,-258,11,0.00
2013-9-11,93.4,81.5,72.0,69.1,62.4,48.7,85,57,23,29.66,29.51,10,-238,10,0.00
2013-9-12,82.4,75.8,66.7,67.5,56.6,41.2,82,54,33,29.57,29.45,0,-999,0,0.08
2013-9-13,73.8,65.5,58.5,51.3,42.4,33.4,72,45,26,29.57,29.48,12,-684,13,0.00
2013-9-14,72.7,60.5,49.3,44.8,39.6,34.3,72,48,26,29.60,29.48,9,-378,9,0.00
2013-9-15,79.7,64.9,50.9,50.9,45.1,40.5,74,51,28,29.57,29.45,0,-999,0,0.00
2013-9-16,72.0,66.3,60.3,57.6,51.7,46.4,80,60,43,29.72,29.54,13,-571,13,0.00
2013-9-17,78.3,66.5,56.3,52.9,49.8,45.7,76,57,33,29.72,29.54,11,2,11,0.00
2013-9-18,81.0,71.5,63.5,69.4,61.8,52.0,93,72,57,29.60,29.48,10,1,10,0.33
2013-9-19,88.5,77.8,70.5,69.8,65.5,58.8,91,68,39,29.54,29.39,15,-20,15,0.00
2013-9-20,75.6,70.8,62.8,67.6,64.5,53.1,91,81,68,29.45,29.34,10,-18,12,0.13
2013-9-21,70.9,62.1,54.1,53.1,44.7,37.4,81,56,32,29.42,29.36,16,-156,16,0.00
2013-9-22,72.3,61.4,51.6,47.7,43.3,37.9,74,54,29,29.48,29.36,11,-110,11,0.00
2013-9-23,74.3,61.4,50.7,49.6,43.4,36.0,82,55,25,29.54,29.42,10,-23,10,0.00
2013-9-24,79.9,66.0,53.1,59.4,50.4,44.8,78,60,34,29.48,29.31,8,-26,9,0.00
2013-9-25,81.9,70.2,62.6,62.8,56.4,48.2,88,65,32,29.39,29.31,10,-365,10,0.00
2013-9-26,81.5,69.2,60.6,61.0,53.1,46.2,84,60,30,29.54,29.36,0,-999,0,0.00
2013-9-27,80.1,66.6,54.1,55.6,48.1,45.0,79,54,30,29.60,29.48,9,-673,9,0.00
2013-9-28,82.8,69.4,57.6,59.5,50.7,46.0,81,55,31,29.60,29.48,0,-999,0,0.00
2013-9-29,73.8,66.3,60.1,60.8,53.5,43.2,89,66,35,29.54,29.42,7,-787,7,0.29
2013-9-30,74.3,66.7,61.7,64.2,59.6,56.3,92,79,54,29.48,29.42,0,-999,0,0.00
2013-10-1,76.8,69.5,62.6,65.3,62.8,58.6,91,80,64,29.54,29.42,10,-218,10,0.00
2013-10-2,80.8,71.3,66.2,70.9,66.2,61.7,98,85,57,29.60,29.51,7,-99,8,0.00
2013-10-3,84.0,73.3,67.5,69.3,63.5,56.3,98,74,43,29.54,29.45,17,-4,17,0.08
2013-10-4,85.8,74.2,66.2,69.3,62.8,59.5,91,69,44,29.51,29.48,15,2,15,0.00
2013-10-5,82.0,71.4,62.8,70.2,66.1,57.4,96,84,56,29.54,29.36,20,-151,20,0.46
2013-10-6,66.2,58.1,51.1,59.9,41.7,30.7,91,57,33,29.42,29.31,0,-999,0,0.20
2013-10-7,67.3,56.6,48.2,45.5,40.4,35.6,78,56,34,29.60,29.36,9,-584,9,0.00
2013-10-8,72.3,57.9,46.6,51.6,42.9,39.0,85,61,32,29.69,29.60,9,-103,10,0.00
2013-10-9,74.5,59.2,46.9,50.0,45.1,40.6,80,62,34,29.63,29.54,6,-320,6,0.00
2013-10-10,78.1,64.2,53.8,58.3,52.5,48.4,87,68,41,29.63,29.51,6,-253,6,0.00
2013-10-11,79.5,65.6,55.9,60.1,51.8,46.6,88,64,35,29.57,29.45,12,-204,12,0.00
2013-10-12,70.5,63.5,57.2,63.9,56.8,44.8,89,79,55,29.69,29.48,8,-9,9,0.09
2013-10-13,72.7,60.9,50.7,44.6,33.4,26.1,58,38,21,29.81,29.66,13,4,15,0.00
2013-10-14,69.6,58.0,48.0,45.7,37.1,26.2,62,46,32,29.78,29.54,10,-18,10,0.00
2013-10-15,66.0,62.6,58.1,63.0,56.3,44.8,93,80,61,29.57,29.36,20,-484,20,0.21
2013-10-16,63.0,55.3,47.7,48.4,37.2,33.3,66,51,35,29.51,29.42,0,-999,0,0.00
2013-10-17,61.9,51.7,46.6,45.5,39.6,33.3,83,65,35,29.48,29.36,15,-547,15,0.00
2013-10-18,65.5,52.5,43.3,44.8,37.6,33.1,84,59,35,29.48,29.42,14,3,14,0.00
2013-10-19,59.0,48.2,40.6,40.5,33.7,26.6,85,60,30,29.48,29.39,17,4,17,0.24
2013-10-20,67.6,52.7,41.2,38.8,34.5,30.7,73,52,29,29.45,29.36,23,5,23,0.00
2013-10-21,56.7,49.7,39.0,41.9,35.0,26.4,72,57,44,29.48,29.36,13,3,13,0.00
2013-10-22,57.0,45.0,33.6,41.7,32.2,26.8,80,63,37,29.51,29.25,17,3,17,0.00
2013-10-23,51.1,43.5,38.5,34.0,26.0,18.5,75,52,31,29.54,29.34,15,5,15,0.00
2013-10-24,47.3,41.2,33.6,31.3,21.4,14.9,69,47,29,29.81,29.51,23,5,23,0.00
2013-10-25,55.6,39.2,27.7,27.0,19.9,16.2,70,47,27,29.90,29.63,9,2,10,0.00
2013-10-26,66.4,49.4,36.9,36.0,25.4,19.0,50,40,28,29.63,29.39,19,5,19,0.00
2013-10-27,62.2,44.3,32.2,28.8,23.9,19.9,68,47,25,29.54,29.42,8,1,9,0.00
2013-10-28,68.0,47.8,33.1,34.5,28.6,23.7,71,50,25,29.66,29.48,6,1,6,0.00
2013-10-29,55.9,49.9,42.3,53.2,39.9,27.7,92,70,52,29.69,29.48,6,1,8,0.09
2013-10-30,76.3,64.2,55.6,66.9,58.0,53.2,98,82,61,29.54,29.36,15,3,15,0.08
2013-10-31,66.4,61.4,51.4,64.4,58.9,46.9,96,92,84,29.36,28.89,20,6,23,1.62
2013-11-1,64.6,52.9,46.0,50.5,40.4,32.7,93,66,35,29.28,29.13,20,5,20,0.33
2013-11-2,55.8,47.2,37.8,41.7,33.8,27.3,81,61,38,29.60,29.28,17,4,17,0.33
2013-11-3,60.4,44.7,32.4,36.5,28.2,24.8,84,56,27,29.72,29.57,10,2,10,0.00
2013-11-4,58.5,51.1,43.7,38.5,33.3,27.9,63,51,38,29.69,29.60,18,4,18,0.00
2013-11-5,69.8,57.2,50.4,46.4,42.4,38.5,82,60,36,29.72,29.48,13,3,13,0.00
2013-11-6,59.4,50.7,38.7,52.2,43.5,32.2,88,77,56,29.63,29.39,21,6,21,0.49
2013-11-7,56.5,42.7,32.0,33.1,28.5,24.8,84,60,34,29.78,29.63,15,4,15,0.00
2013-11-8,45.0,44.5,43.5,24.6,23.6,22.5,47,43,41,29.57,29.57,8,2,8,0.00
2013-11-9,68.5,52.7,42.4,35.2,30.2,24.3,58,43,26,29.63,29.48,18,5,18,0.00
2013-11-10,58.8,46.2,35.4,30.6,24.8,21.0,64,44,27,29.81,29.63,14,3,16,0.00
2013-11-11,62.8,46.7,34.9,37.4,29.5,24.4,79,54,31,29.81,29.51,20,5,20,0.05
2013-11-12,37.8,30.2,22.6,27.1,12.7,9.3,74,48,35,30.07,29.81,23,6,23,0.05
2013-11-13,47.1,31.8,19.4,18.5,12.7,9.0,69,47,28,30.07,29.72,13,3,13,0.00
2013-11-14,57.0,42.8,29.7,21.6,16.1,12.0,50,35,22,29.75,29.48,19,6,20,0.00
2013-11-15,59.0,46.7,41.0,37.2,23.5,13.8,67,41,26,29.51,29.39,13,4,13,0.00
2013-11-16,65.5,57.4,46.4,60.1,48.4,37.2,91,73,47,29.42,29.16,22,6,23,0.29
2013-11-17,73.9,63.2,49.5,63.0,47.7,25.3,92,62,23,29.39,28.92,29,8,29,0.49
2013-11-18,57.6,47.3,39.2,36.3,26.0,16.5,74,46,25,29.72,29.39,23,5,23,0.00
2013-11-19,51.1,39.0,33.1,22.5,19.0,15.8,58,45,30,29.75,29.60,10,3,10,0.00
2013-11-20,50.9,41.5,30.7,34.2,24.9,18.5,68,52,38,29.66,29.48,9,2,9,0.00
2013-11-21,51.6,49.9,46.4,50.0,42.1,30.7,94,76,47,29.60,29.48,10,1,10,0.59
2013-11-22,51.4,43.4,35.2,50.0,36.4,23.4,95,77,56,29.87,29.60,15,-1,18,0.08
2013-11-23,36.5,29.7,20.5,26.6,12.8,2.3,73,50,35,30.04,29.84,20,8,22,0.00
2013-11-24,33.6,23.3,15.4,7.7,3.2,-0.2,54,42,31,30.10,29.84,13,3,13,0.00
2013-11-25,36.9,32.1,25.7,17.1,12.2,6.3,51,43,35,29.84,29.54,11,3,13,0.00
2013-11-26,44.6,34.2,23.0,20.7,14.8,1.0,54,45,34,29.60,29.42,23,6,23,0.00
2013-11-27,31.6,22.6,17.2,4.1,1.6,-0.6,52,40,31,29.72,29.57,19,6,19,0.00
2013-11-28,47.5,31.3,17.2,16.7,10.4,2.7,54,42,29,29.87,29.60,20,4,21,0.00
2013-11-29,48.4,33.7,23.5,20.3,14.1,9.3,55,45,31,29.96,29.81,7,2,7,0.00
2013-11-30,57.6,41.1,25.3,26.8,20.7,13.5,63,45,27,29.81,29.51,17,3,17,0.00
2013-12-1,60.6,44.3,33.4,34.0,27.7,23.4,70,53,35,29.54,29.34,9,2,9,0.00
2013-12-2,58.5,45.8,38.5,38.8,32.5,24.8,75,60,47,29.34,29.13,9,1,9,0.00
2013-12-3,58.6,49.1,38.7,51.3,41.6,32.4,93,76,59,29.19,29.13,11,2,12,0.00
2013-12-4,67.1,56.1,43.3,59.2,48.8,36.1,98,78,54,29.28,29.01,23,5,25,0.00
2013-12-5,47.3,31.0,22.6,37.0,20.4,12.2,77,65,53,29.66,29.25,18,6,18,0.00
2013-12-6,24.3,21.8,17.2,16.3,10.3,-0.0,76,61,46,29.93,29.60,13,-116,13,0.00
2013-12-7,24.1,17.4,10.0,4.8,0.2,-4.5,52,46,38,30.04,29.84,0,-999,5,0.00
2013-12-8,27.9,25.5,21.0,23.2,15.3,4.3,82,66,49,29.84,29.42,12,-466,12,0.00
2013-12-9,28.9,25.8,22.5,22.5,12.1,7.3,80,57,43,29.69,29.48,17,5,17,0.00
2013-12-10,35.1,23.4,15.4,13.3,8.7,5.0,67,54,40,29.72,29.60,15,-215,19,0.00
2013-12-11,34.7,21.5,10.8,17.4,6.8,-6.9,74,54,41,29.99,29.69,0,-999,0,0.00
2013-12-12,31.3,17.8,5.4,6.8,-1.5,-11.7,52,42,33,29.99,29.69,11,-769,11,0.00
2013-12-13,39.4,29.0,16.2,28.0,16.4,4.5,81,60,39,29.69,29.36,0,-999,0,0.00
2013-12-14,36.7,33.1,27.7,32.9,28.1,19.9,90,82,68,29.51,29.25,22,-179,22,0.33
2013-12-15,34.2,28.4,23.9,24.1,17.4,12.0,74,63,48,29.60,29.45,18,-348,18,0.00
2013-12-16,43.9,34.3,27.0,29.7,24.9,20.8,80,69,49,29.51,29.42,0,-999,0,0.08
2013-12-17,40.6,31.0,25.3,24.4,20.5,14.2,80,66,50,29.63,29.48,15,-774,15,0.00
2013-12-18,45.9,34.7,21.6,26.2,17.1,12.2,69,50,31,29.66,29.36,0,-999,0,0.00
2013-12-19,56.5,48.5,41.2,44.1,35.9,26.2,70,62,49,29.42,29.25,24,-557,24,0.00
2013-12-20,63.9,55.4,40.6,55.6,48.2,36.0,87,77,67,29.31,29.19,23,-54,23,0.33
2013-12-21,40.8,36.4,34.9,36.9,35.3,34.2,98,96,84,29.28,28.92,15,-295,15,3.06
2013-12-22,38.1,34.8,30.4,36.0,29.7,21.0,98,82,62,29.63,29.01,18,-250,18,0.21
2013-12-23,32.4,25.2,13.8,21.6,11.2,-2.4,70,55,46,29.96,29.60,9,-964,9,0.00
2013-12-24,27.3,17.7,8.6,5.4,-0.5,-5.8,54,45,33,29.99,29.75,0,-999,0,0.00
2013-12-25,35.1,29.8,20.7,24.1,14.8,5.2,67,53,44,29.78,29.60,0,-999,0,0.00
2013-12-26,47.1,34.5,23.9,25.9,20.6,15.3,79,58,35,29.78,29.66,0,-999,0,0.00
2013-12-27,54.5,38.6,27.9,29.1,23.8,19.2,73,56,36,29.78,29.66,0,-999,0,0.00
2013-12-28,54.1,41.2,31.5,31.3,26.0,23.0,77,56,37,29.66,29.34,0,-999,0,0.00
2013-12-29,42.1,31.8,19.9,28.0,18.9,6.4,68,59,48,29.66,29.28,0,-985,0,0.00
2013-12-30,28.4,19.4,10.4,7.2,1.9,-2.2,56,46,34,29.75,29.60,0,-999,0,0.00
2013-12-31,43.2,31.7,22.5,18.9,12.3,6.3,53,44,32,29.81,29.60,0,-999,0,0.00
2014-1-1,49.6,38.2,30.4,27.0,21.6,19.0,81,52,37,29.60,29.39,13,-446,13,0.00
2014-1-2,31.3,18.9,9.3,26.1,8.2,-3.1,81,63,51,29.81,29.36,23,8,23,0.00